createdAt,value
2023-01-29T00:01:45.554Z,102629.47
2023-01-29T00:04:50.297Z,102621.72
2023-01-29T00:07:56.488Z,102617.38
2023-01-29T00:11:03.347Z,102613.03
2023-01-29T00:14:08.388Z,102608.72
2023-01-29T00:17:12.856Z,102615.72
2023-01-29T00:20:27.962Z,102620.91
2023-01-29T00:23:43.492Z,102626.13
2023-01-29T00:26:51.227Z,102629.66
2023-01-29T00:30:12.784Z,102633.94
2023-01-29T00:33:16.861Z,102625.28
2023-01-29T00:36:22.378Z,102630.50
2023-01-29T00:39:47.551Z,102634.00
2023-01-29T00:43:11.700Z,102627.00
2023-01-29T00:46:16.177Z,102631.41
2023-01-29T00:49:20.969Z,102622.75
2023-01-29T00:52:26.059Z,102625.34
2023-01-29T00:55:30.575Z,102625.38
2023-01-29T00:58:35.167Z,102634.91
2023-01-29T01:01:57.824Z,102634.13
2023-01-29T01:05:06.219Z,102634.91
2023-01-29T01:08:29.775Z,102646.19
2023-01-29T01:11:34.286Z,102632.34
2023-01-29T01:14:38.371Z,102630.69
2023-01-29T01:17:42.604Z,102634.13
2023-01-29T01:20:51.525Z,102635.88
2023-01-29T01:23:56.047Z,102629.78
2023-01-29T01:27:01.042Z,102628.06
2023-01-29T01:30:06.217Z,102624.63
2023-01-29T01:33:10.627Z,102625.47
2023-01-29T01:36:15.831Z,102624.66
2023-01-29T01:39:20.077Z,102633.34
2023-01-29T01:42:33.373Z,102625.56
2023-01-29T01:45:37.772Z,102617.75
2023-01-29T01:48:43.615Z,102622.97
2023-01-29T01:51:52.093Z,102615.13
2023-01-29T01:54:58.018Z,102620.41
2023-01-29T01:58:12.472Z,102615.22
2023-01-29T02:01:17.884Z,102620.38
2023-01-29T02:04:43.641Z,102622.13
2023-01-29T02:08:08.884Z,102612.59
2023-01-29T02:11:13.667Z,102608.25
2023-01-29T02:14:18.060Z,102610.84
2023-01-29T02:17:22.301Z,102605.69
2023-01-29T02:20:34.820Z,102593.50
2023-01-29T02:24:18.809Z,102590.06
2023-01-29T02:27:57.245Z,102594.38
2023-01-29T02:31:41.503Z,102577.09
2023-01-29T02:35:15.537Z,102572.72
2023-01-29T02:38:50.711Z,102565.81
2023-01-29T02:42:07.320Z,102549.34
2023-01-29T02:45:19.183Z,102542.44
2023-01-29T02:48:25.415Z,102541.50
2023-01-29T02:51:45.198Z,102526.88
2023-01-29T02:55:08.757Z,102525.13
2023-01-29T02:58:50.809Z,102513.84
2023-01-29T03:02:26.492Z,102512.97
2023-01-29T03:05:55.970Z,102520.72
2023-01-29T03:09:09.572Z,102518.16
2023-01-29T03:12:33.979Z,102514.69
2023-01-29T03:15:48.399Z,102509.44
2023-01-29T03:19:10.886Z,102506.03
2023-01-29T03:22:17.351Z,102507.75
2023-01-29T03:25:44.666Z,102516.44
2023-01-29T03:29:07.930Z,102512.94
2023-01-29T03:32:14.640Z,102517.25
2023-01-29T03:35:33.458Z,102516.44
2023-01-29T03:38:37.691Z,102519.91
2023-01-29T03:42:17.678Z,102511.22
2023-01-29T03:45:43.168Z,102511.22
2023-01-29T03:48:53.909Z,102508.63
2023-01-29T03:52:08.618Z,102506.88
2023-01-29T03:55:29.177Z,102499.97
2023-01-29T03:58:55.934Z,102506.03
2023-01-29T04:02:06.086Z,102506.91
2023-01-29T04:05:18.765Z,102508.59
2023-01-29T04:08:31.123Z,102518.97
2023-01-29T04:11:42.814Z,102527.59
2023-01-29T04:14:50.298Z,102516.34
2023-01-29T04:17:57.112Z,102516.38
2023-01-29T04:21:02.501Z,102508.56
2023-01-29T04:24:07.927Z,102518.94
2023-01-29T04:27:12.225Z,102512.03
2023-01-29T04:30:28.102Z,102515.47
2023-01-29T04:34:00.872Z,102525.00
2023-01-29T04:37:19.562Z,102517.22
2023-01-29T04:40:56.602Z,102516.31
2023-01-29T04:44:22.948Z,102503.34
2023-01-29T04:48:05.568Z,102492.06
2023-01-29T04:51:21.096Z,102491.22
2023-01-29T04:54:34.357Z,102470.44
2023-01-29T04:58:12.785Z,102466.91
2023-01-29T05:01:19.005Z,102475.59
2023-01-29T05:04:24.534Z,102486.84
2023-01-29T05:07:31.165Z,102473.78
2023-01-29T05:10:35.714Z,102472.00
2023-01-29T05:13:43.098Z,102459.03
2023-01-29T05:16:53.353Z,102458.19
2023-01-29T05:19:58.303Z,102464.22
2023-01-29T05:23:02.482Z,102477.22
2023-01-29T05:26:06.787Z,102483.19
2023-01-29T05:29:12.253Z,102484.91
2023-01-29T05:32:17.093Z,102496.16
2023-01-29T05:35:21.520Z,102489.22
2023-01-29T05:38:26.241Z,102468.44
2023-01-29T05:41:30.621Z,102464.13
2023-01-29T05:44:34.928Z,102452.88
2023-01-29T05:47:39.332Z,102423.41
2023-01-29T05:50:43.570Z,102432.94
2023-01-29T05:53:47.376Z,102438.13
2023-01-29T05:56:51.885Z,102437.28
2023-01-29T05:59:56.162Z,102441.56
2023-01-29T06:03:00.968Z,102425.97
2023-01-29T06:06:06.062Z,102425.13
2023-01-29T06:09:11.913Z,102422.56
2023-01-29T06:12:15.754Z,102428.59
2023-01-29T06:15:20.392Z,102414.72
2023-01-29T06:18:24.782Z,102422.50
2023-01-29T06:21:29.070Z,102414.72
2023-01-29T06:24:33.393Z,102409.56
2023-01-29T06:27:37.839Z,102406.09
2023-01-29T06:30:42.048Z,102411.28
2023-01-29T06:33:46.957Z,102403.50
2023-01-29T06:36:51.524Z,102392.22
2023-01-29T06:39:55.605Z,102387.88
2023-01-29T06:43:03.145Z,102391.34
2023-01-29T06:46:08.836Z,102376.63
2023-01-29T06:49:13.189Z,102371.44
2023-01-29T06:52:17.485Z,102388.75
2023-01-29T06:55:21.944Z,102392.19
2023-01-29T06:58:26.323Z,102390.47
2023-01-29T07:01:36.240Z,102399.09
2023-01-29T07:04:42.712Z,102393.91
2023-01-29T07:07:46.720Z,102392.16
2023-01-29T07:10:51.021Z,102398.25
2023-01-29T07:13:55.206Z,102393.97
2023-01-29T07:16:59.627Z,102406.06
2023-01-29T07:20:04.221Z,102397.38
2023-01-29T07:23:13.935Z,102383.56
2023-01-29T07:26:18.330Z,102386.19
2023-01-29T07:29:22.867Z,102395.72
2023-01-29T07:32:29.105Z,102394.00
2023-01-29T07:35:42.011Z,102387.06
2023-01-29T07:38:51.103Z,102394.00
2023-01-29T07:41:55.485Z,102397.50
2023-01-29T07:44:59.706Z,102390.56
2023-01-29T07:48:05.965Z,102381.03
2023-01-29T07:51:10.440Z,102372.44
2023-01-29T07:54:14.729Z,102369.81
2023-01-29T07:57:18.983Z,102375.91
2023-01-29T08:00:23.706Z,102368.97
2023-01-29T08:03:28.230Z,102358.59
2023-01-29T08:06:32.575Z,102366.38
2023-01-29T08:09:37.315Z,102363.78
2023-01-29T08:12:41.570Z,102350.81
2023-01-29T08:15:46.153Z,102349.13
2023-01-29T08:18:50.452Z,102345.63
2023-01-29T08:21:54.625Z,102340.44
2023-01-29T08:25:06.156Z,102348.22
2023-01-29T08:28:12.463Z,102354.31
2023-01-29T08:31:18.146Z,102357.75
2023-01-29T08:34:22.703Z,102350.03
2023-01-29T08:37:27.168Z,102350.84
2023-01-29T08:40:34.740Z,102342.19
2023-01-29T08:43:40.528Z,102352.59
2023-01-29T08:46:44.858Z,102350.88
2023-01-29T08:49:49.039Z,102349.13
2023-01-29T08:53:44.464Z,102349.16
2023-01-29T08:56:55.131Z,102350.06
2023-01-29T08:59:59.217Z,102356.97
2023-01-29T09:03:04.634Z,102355.25
2023-01-29T09:06:12.114Z,102356.16
2023-01-29T09:09:16.678Z,102357.03
2023-01-29T09:12:20.932Z,102351.84
2023-01-29T09:15:25.511Z,102345.78
2023-01-29T09:18:31.095Z,102344.94
2023-01-29T09:21:35.175Z,102338.00
2023-01-29T09:24:39.401Z,102342.34
2023-01-29T09:27:43.811Z,102329.41
2023-01-29T09:30:48.156Z,102320.72
2023-01-29T09:33:52.672Z,102320.69
2023-01-29T09:36:56.890Z,102313.81
2023-01-29T09:40:04.064Z,102308.63
2023-01-29T09:43:19.157Z,102310.31
2023-01-29T09:46:31.827Z,102309.47
2023-01-29T09:49:42.503Z,102301.69
2023-01-29T09:52:52.026Z,102306.00
2023-01-29T09:56:19.991Z,102306.03
2023-01-29T09:59:29.901Z,102295.63
2023-01-29T10:03:08.426Z,102300.84
2023-01-29T10:06:53.732Z,102302.59
2023-01-29T10:10:30.183Z,102299.13
2023-01-29T10:14:21.413Z,102300.84
2023-01-29T10:17:43.744Z,102293.91
2023-01-29T10:21:17.310Z,102285.25
2023-01-29T10:25:00.110Z,102281.78
2023-01-29T10:28:20.863Z,102274.00
2023-01-29T10:31:32.719Z,102259.28
2023-01-29T10:34:46.479Z,102249.75
2023-01-29T10:37:54.307Z,102256.69
2023-01-29T10:41:14.121Z,102247.16
2023-01-29T10:44:31.263Z,102249.75
2023-01-29T10:48:33.886Z,102246.31
2023-01-29T10:52:14.729Z,102228.09
2023-01-29T10:55:40.360Z,102212.50
2023-01-29T10:58:57.392Z,102215.97
2023-01-29T11:02:05.023Z,102217.69
2023-01-29T11:05:25.851Z,102220.28
2023-01-29T11:09:05.147Z,102215.09
2023-01-29T11:12:22.788Z,102210.75
2023-01-29T11:15:34.954Z,102214.25
2023-01-29T11:18:50.689Z,102192.59
2023-01-29T11:22:02.929Z,102189.09
2023-01-29T11:25:21.450Z,102189.09
2023-01-29T11:28:46.805Z,102178.69
2023-01-29T11:31:51.034Z,102177.84
2023-01-29T11:35:13.972Z,102182.19
2023-01-29T11:38:29.657Z,102171.81
2023-01-29T11:41:52.854Z,102159.66
2023-01-29T11:44:57.306Z,102162.25
2023-01-29T11:48:01.769Z,102144.94
2023-01-29T11:51:06.606Z,102138.00
2023-01-29T11:54:19.641Z,102144.06
2023-01-29T11:57:34.316Z,102136.28
2023-01-29T12:00:41.844Z,102125.00
2023-01-29T12:03:54.077Z,102117.19
2023-01-29T12:06:58.644Z,102117.22
2023-01-29T12:10:03.614Z,102099.00
2023-01-29T12:13:10.936Z,102106.81
2023-01-29T12:16:39.415Z,102099.88
2023-01-29T12:20:03.861Z,102100.75
2023-01-29T12:23:43.008Z,102094.66
2023-01-29T12:26:54.407Z,102091.22
2023-01-29T12:30:15.426Z,102086.88
2023-01-29T12:33:25.536Z,102080.81
2023-01-29T12:36:55.632Z,102075.63
2023-01-29T12:40:01.710Z,102059.16
2023-01-29T12:43:17.765Z,102066.06
2023-01-29T12:46:30.233Z,102050.47
2023-01-29T12:50:01.789Z,102044.44
2023-01-29T12:53:31.796Z,102032.28
2023-01-29T12:56:47.922Z,102024.50
2023-01-29T13:00:27.637Z,102018.44
2023-01-29T13:03:50.637Z,102017.56
2023-01-29T13:07:04.921Z,102009.78
2023-01-29T13:10:19.901Z,102003.69
2023-01-29T13:13:39.393Z,101996.75
2023-01-29T13:16:48.217Z,101989.84
2023-01-29T13:20:01.168Z,101985.50
2023-01-29T13:23:34.203Z,101974.25
2023-01-29T13:26:50.365Z,101983.78
2023-01-29T13:29:57.366Z,101975.09
2023-01-29T13:33:11.129Z,101975.09
2023-01-29T13:36:23.278Z,101976.84
2023-01-29T13:39:45.637Z,101969.88
2023-01-29T13:43:00.206Z,101970.75
2023-01-29T13:46:21.201Z,101967.28
2023-01-29T13:49:48.006Z,101949.09
2023-01-29T13:53:06.453Z,101943.03
2023-01-29T13:56:37.874Z,101935.22
2023-01-29T13:59:52.570Z,101938.69
2023-01-29T14:03:23.747Z,101924.84
2023-01-29T14:06:44.046Z,101919.66
2023-01-29T14:09:49.659Z,101921.38
2023-01-29T14:13:18.367Z,101921.41
2023-01-29T14:16:22.973Z,101917.91
2023-01-29T14:19:27.218Z,101911.00
2023-01-29T14:22:34.730Z,101907.53
2023-01-29T14:25:41.233Z,101912.72
2023-01-29T14:29:14.509Z,101907.53
2023-01-29T14:32:25.121Z,101896.28
2023-01-29T14:35:34.829Z,101894.53
2023-01-29T14:38:46.437Z,101888.47
2023-01-29T14:41:52.725Z,101870.31
2023-01-29T14:45:08.563Z,101886.75
2023-01-29T14:48:42.340Z,101878.09
2023-01-29T14:51:51.357Z,101875.50
2023-01-29T14:55:06.061Z,101865.94
2023-01-29T14:59:38.787Z,101865.09
2023-01-29T15:03:41.634Z,101848.66
2023-01-29T15:06:55.197Z,101850.34
2023-01-29T15:10:57.168Z,101849.53
2023-01-29T15:15:04.579Z,101843.47
2023-01-29T15:19:04.931Z,101838.25
2023-01-29T15:23:09.533Z,101827.03
2023-01-29T15:30:45.182Z,101818.34
2023-01-29T15:34:05.047Z,101805.38
2023-01-29T15:38:14.903Z,101802.78
2023-01-29T15:41:25.827Z,101793.28
2023-01-29T15:44:48.220Z,101803.66
2023-01-29T15:48:03.031Z,101795.00
2023-01-29T15:51:11.952Z,101791.53
2023-01-29T15:54:18.092Z,101792.38
2023-01-29T15:57:30.962Z,101801.94
2023-01-29T16:00:35.739Z,101807.13
2023-01-29T16:03:40.297Z,101801.06
2023-01-29T16:06:45.108Z,101804.53
2023-01-29T16:09:52.693Z,101790.69
2023-01-29T16:12:58.557Z,101799.31
2023-01-29T16:16:19.153Z,101794.13
2023-01-29T16:19:27.111Z,101781.97
2023-01-29T16:22:37.333Z,101774.25
2023-01-29T16:25:41.915Z,101772.50
2023-01-29T16:28:47.520Z,101776.84
2023-01-29T16:32:00.490Z,101770.75
2023-01-29T16:35:06.070Z,101767.31
2023-01-29T16:38:31.577Z,101753.47
2023-01-29T16:41:38.536Z,101741.38
2023-01-29T16:44:52.382Z,101743.09
2023-01-29T16:48:27.874Z,101743.09
2023-01-29T16:51:39.481Z,101740.47
2023-01-29T16:54:43.997Z,101718.81
2023-01-29T16:57:54.159Z,101718.81
2023-01-29T17:01:11.442Z,101701.53
2023-01-29T17:04:19.049Z,101685.97
2023-01-29T17:07:23.809Z,101691.19
2023-01-29T17:10:30.189Z,101692.06
2023-01-29T17:13:44.332Z,101686.03
2023-01-29T17:17:14.986Z,101676.56
2023-01-29T17:20:19.877Z,101686.97
2023-01-29T17:23:24.341Z,101680.03
2023-01-29T17:26:30.745Z,101683.53
2023-01-29T17:29:37.848Z,101675.75
2023-01-29T17:32:44.234Z,101667.97
2023-01-29T17:35:50.629Z,101665.38
2023-01-29T17:38:55.549Z,101661.88
2023-01-29T17:42:01.367Z,101670.56
2023-01-29T17:45:13.248Z,101651.50
2023-01-29T17:48:27.115Z,101644.59
2023-01-29T17:51:31.576Z,101628.19
2023-01-29T17:54:36.178Z,101624.69
2023-01-29T17:57:40.461Z,101611.72
2023-01-29T18:00:45.637Z,101611.72
2023-01-29T18:03:50.162Z,101602.16
2023-01-29T18:07:00.016Z,101592.69
2023-01-29T18:10:05.169Z,101587.50
2023-01-29T18:13:09.742Z,101582.25
2023-01-29T18:16:14.162Z,101583.97
2023-01-29T18:19:27.613Z,101589.16
2023-01-29T18:22:32.350Z,101573.59
2023-01-29T18:25:36.581Z,101569.28
2023-01-29T18:28:43.393Z,101569.31
2023-01-29T18:31:49.559Z,101557.19
2023-01-29T18:34:54.626Z,101560.69
2023-01-29T18:37:59.177Z,101552.94
2023-01-29T18:41:11.944Z,101552.03
2023-01-29T18:44:16.345Z,101554.59
2023-01-29T18:47:20.549Z,101540.78
2023-01-29T18:50:26.382Z,101538.19
2023-01-29T18:53:32.829Z,101533.81
2023-01-29T18:57:13.117Z,101533.81
2023-01-29T19:00:08.875Z,101517.41
2023-01-29T19:03:13.698Z,101507.88
2023-01-29T19:06:18.404Z,101511.31
2023-01-29T19:09:25.366Z,101515.66
2023-01-29T19:12:33.968Z,101495.69
2023-01-29T19:15:47.538Z,101506.09
2023-01-29T19:19:16.527Z,101482.72
2023-01-29T19:22:28.411Z,101488.78
2023-01-29T19:25:52.208Z,101477.53
2023-01-29T19:29:16.325Z,101463.72
2023-01-29T19:32:35.342Z,101468.06
2023-01-29T19:35:43.818Z,101464.56
2023-01-29T19:38:50.418Z,101455.91
2023-01-29T19:41:54.968Z,101453.38
2023-01-29T19:44:59.290Z,101438.66
2023-01-29T19:48:03.687Z,101442.06
2023-01-29T19:51:10.577Z,101447.25
2023-01-29T19:54:22.002Z,101443.78
2023-01-29T19:57:26.336Z,101440.31
2023-01-29T20:00:31.331Z,101436.88
2023-01-29T20:03:44.659Z,101429.09
2023-01-29T20:06:52.687Z,101427.34
2023-01-29T20:10:00.511Z,101419.56
2023-01-29T20:13:06.074Z,101411.75
2023-01-29T20:16:14.029Z,101407.44
2023-01-29T20:19:22.155Z,101395.31
2023-01-29T20:22:27.292Z,101384.94
2023-01-29T20:25:31.923Z,101367.63
2023-01-29T20:28:42.790Z,101383.16
2023-01-29T20:31:47.704Z,101381.41
2023-01-29T20:35:06.042Z,101371.94
2023-01-29T20:38:10.793Z,101379.69
2023-01-29T20:41:27.515Z,101363.22
2023-01-29T20:44:32.379Z,101355.44
2023-01-29T20:47:37.548Z,101356.25
2023-01-29T20:50:43.102Z,101351.97
2023-01-29T20:53:57.539Z,101336.44
2023-01-29T20:57:02.136Z,101345.88
2023-01-29T21:00:12.065Z,101340.75
2023-01-29T21:03:16.896Z,101329.47
2023-01-29T21:06:24.555Z,101327.69
2023-01-29T21:09:29.150Z,101313.84
2023-01-29T21:12:33.479Z,101320.81
2023-01-29T21:15:38.646Z,101301.81
2023-01-29T21:18:47.546Z,101296.59
2023-01-29T21:21:51.902Z,101297.44
2023-01-29T21:24:56.351Z,101298.22
2023-01-29T21:28:01.163Z,101293.00
2023-01-29T21:31:12.882Z,101277.47
2023-01-29T21:34:17.307Z,101284.28
2023-01-29T21:37:21.875Z,101271.41
2023-01-29T21:40:26.160Z,101267.00
2023-01-29T21:43:30.651Z,101257.47
2023-01-29T21:46:35.160Z,101258.31
2023-01-29T21:49:44.663Z,101251.41
2023-01-29T21:52:49.291Z,101225.41
2023-01-29T21:56:01.225Z,101227.09
2023-01-29T21:59:11.511Z,101220.16
2023-01-29T22:02:16.279Z,101201.13
2023-01-29T22:05:20.618Z,101197.59
2023-01-29T22:08:31.957Z,101178.53
2023-01-29T22:11:39.962Z,101181.97
2023-01-29T22:14:48.496Z,101187.13
2023-01-29T22:17:55.197Z,101182.84
2023-01-29T22:21:05.112Z,101182.00
2023-01-29T22:24:09.762Z,101170.66
2023-01-29T22:27:18.428Z,101165.47
2023-01-29T22:30:23.412Z,101149.03
2023-01-29T22:33:28.400Z,101110.97
2023-01-29T22:36:32.994Z,101091.94
2023-01-29T22:39:37.455Z,101102.34
2023-01-29T22:42:41.696Z,101100.56
2023-01-29T22:45:46.633Z,101094.50
2023-01-29T22:48:54.643Z,101091.84
2023-01-29T22:52:11.880Z,101068.50
2023-01-29T22:55:37.426Z,101053.75
2023-01-29T22:58:42.380Z,101039.84
2023-01-29T23:01:49.567Z,101042.38
2023-01-29T23:04:54.742Z,101038.00
2023-01-29T23:08:10.221Z,101058.75
2023-01-29T23:11:21.826Z,101043.97
2023-01-29T23:14:32.511Z,101032.66
2023-01-29T23:18:04.533Z,101034.34
2023-01-29T23:21:49.728Z,101017.91
2023-01-29T23:24:56.727Z,101004.91
2023-01-29T23:28:12.211Z,101009.97
2023-01-29T23:31:19.811Z,101007.38
2023-01-29T23:34:38.775Z,101013.34
2023-01-29T23:37:43.824Z,101013.28
2023-01-29T23:41:14.117Z,101006.31
2023-01-29T23:48:09.935Z,100984.66
2023-01-29T23:51:39.643Z,101005.28
2023-01-29T23:54:44.075Z,100999.22
2023-01-29T23:57:52.816Z,100992.19
